sensor_id;sensor_type;location;lat;lon;timestamp;P1;durP1;ratioP1;P2;durP2;ratioP2
16792;SDS011;8513;42.662;23.350;2024-03-08T00:00:03;9.57;;;8.57;;
16792;SDS011;8513;42.662;23.350;2024-03-08T00:02:37;10.17;;;8.87;;
16792;SDS011;8513;42.662;23.350;2024-03-08T00:05:04;8.57;;;7.53;;
16792;SDS011;8513;42.662;23.350;2024-03-08T00:07:30;7.83;;;6.90;;
16792;SDS011;8513;42.662;23.350;2024-03-08T00:09:55;9.00;;;7.87;;
16792;SDS011;8513;42.662;23.350;2024-03-08T00:12:21;9.30;;;8.40;;
16792;SDS011;8513;42.662;23.350;2024-03-08T00:14:46;9.00;;;8.10;;
16792;SDS011;8513;42.662;23.350;2024-03-08T00:17:11;9.77;;;8.07;;
16792;SDS011;8513;42.662;23.350;2024-03-08T00:19:37;7.97;;;6.80;;
16792;SDS011;8513;42.662;23.350;2024-03-08T00:22:02;8.57;;;7.67;;
16792;SDS011;8513;42.662;23.350;2024-03-08T00:24:28;7.37;;;6.67;;
16792;SDS011;8513;42.662;23.350;2024-03-08T00:26:54;7.63;;;6.83;;
16792;SDS011;8513;42.662;23.350;2024-03-08T00:29:20;7.50;;;6.60;;
16792;SDS011;8513;42.662;23.350;2024-03-08T00:31:46;7.90;;;7.10;;
16792;SDS011;8513;42.662;23.350;2024-03-08T00:34:12;7.30;;;6.60;;
16792;SDS011;8513;42.662;23.350;2024-03-08T00:36:37;6.80;;;6.10;;
16792;SDS011;8513;42.662;23.350;2024-03-08T00:39:02;9.90;;;6.63;;
16792;SDS011;8513;42.662;23.350;2024-03-08T00:41:31;6.77;;;6.17;;
16792;SDS011;8513;42.662;23.350;2024-03-08T00:43:57;6.73;;;6.03;;
16792;SDS011;8513;42.662;23.350;2024-03-08T00:46:23;7.37;;;6.30;;
16792;SDS011;8513;42.662;23.350;2024-03-08T00:48:48;7.80;;;6.50;;
16792;SDS011;8513;42.662;23.350;2024-03-08T00:51:14;6.20;;;5.60;;
16792;SDS011;8513;42.662;23.350;2024-03-08T00:53:41;8.50;;;5.83;;
16792;SDS011;8513;42.662;23.350;2024-03-08T00:56:07;6.40;;;5.80;;
16792;SDS011;8513;42.662;23.350;2024-03-08T00:58:36;6.90;;;6.20;;
16792;SDS011;8513;42.662;23.350;2024-03-08T01:01:02;5.80;;;5.17;;
16792;SDS011;8513;42.662;23.350;2024-03-08T01:03:27;6.17;;;5.57;;
16792;SDS011;8513;42.662;23.350;2024-03-08T01:05:53;5.10;;;4.60;;
16792;SDS011;8513;42.662;23.350;2024-03-08T01:08:19;4.77;;;3.67;;
16792;SDS011;8513;42.662;23.350;2024-03-08T01:10:44;3.40;;;3.10;;
16792;SDS011;8513;42.662;23.350;2024-03-08T01:13:09;3.80;;;3.10;;
16792;SDS011;8513;42.662;23.350;2024-03-08T01:15:35;3.27;;;2.97;;
16792;SDS011;8513;42.662;23.350;2024-03-08T01:18:01;3.23;;;2.67;;
16792;SDS011;8513;42.662;23.350;2024-03-08T01:20:26;2.77;;;2.57;;
16792;SDS011;8513;42.662;23.350;2024-03-08T01:22:52;4.23;;;3.23;;
16792;SDS011;8513;42.662;23.350;2024-03-08T01:25:18;3.10;;;2.57;;
16792;SDS011;8513;42.662;23.350;2024-03-08T01:27:43;2.87;;;2.67;;
16792;SDS011;8513;42.662;23.350;2024-03-08T01:30:09;2.33;;;1.97;;
16792;SDS011;8513;42.662;23.350;2024-03-08T01:32:34;2.87;;;2.20;;
16792;SDS011;8513;42.662;23.350;2024-03-08T01:35:00;1.97;;;1.87;;
16792;SDS011;8513;42.662;23.350;2024-03-08T01:37:26;3.80;;;2.10;;
16792;SDS011;8513;42.662;23.350;2024-03-08T01:39:51;2.27;;;2.07;;
16792;SDS011;8513;42.662;23.350;2024-03-08T01:42:17;2.40;;;2.20;;
16792;SDS011;8513;42.662;23.350;2024-03-08T01:44:43;2.90;;;2.70;;
16792;SDS011;8513;42.662;23.350;2024-03-08T01:47:09;3.57;;;2.50;;
16792;SDS011;8513;42.662;23.350;2024-03-08T01:49:36;3.17;;;2.87;;
16792;SDS011;8513;42.662;23.350;2024-03-08T01:52:02;3.73;;;2.67;;
16792;SDS011;8513;42.662;23.350;2024-03-08T01:54:28;3.43;;;3.13;;
16792;SDS011;8513;42.662;23.350;2024-03-08T01:56:55;2.90;;;2.70;;
16792;SDS011;8513;42.662;23.350;2024-03-08T01:59:23;2.93;;;2.63;;
16792;SDS011;8513;42.662;23.350;2024-03-08T02:01:52;3.13;;;2.83;;
16792;SDS011;8513;42.662;23.350;2024-03-08T02:04:20;2.70;;;2.47;;
16792;SDS011;8513;42.662;23.350;2024-03-08T02:06:46;2.87;;;2.60;;
16792;SDS011;8513;42.662;23.350;2024-03-08T02:09:13;2.73;;;2.00;;
16792;SDS011;8513;42.662;23.350;2024-03-08T02:11:40;2.20;;;2.00;;
16792;SDS011;8513;42.662;23.350;2024-03-08T02:14:06;2.40;;;2.20;;
16792;SDS011;8513;42.662;23.350;2024-03-08T02:16:31;2.17;;;1.97;;
16792;SDS011;8513;42.662;23.350;2024-03-08T02:18:58;2.20;;;2.00;;
16792;SDS011;8513;42.662;23.350;2024-03-08T02:21:23;2.07;;;1.87;;
16792;SDS011;8513;42.662;23.350;2024-03-08T02:23:50;2.40;;;2.20;;
16792;SDS011;8513;42.662;23.350;2024-03-08T02:26:17;2.13;;;2.00;;
16792;SDS011;8513;42.662;23.350;2024-03-08T02:28:43;2.00;;;1.90;;
16792;SDS011;8513;42.662;23.350;2024-03-08T02:31:12;2.03;;;1.83;;
16792;SDS011;8513;42.662;23.350;2024-03-08T02:33:37;2.30;;;2.10;;
16792;SDS011;8513;42.662;23.350;2024-03-08T02:36:03;3.83;;;2.37;;
16792;SDS011;8513;42.662;23.350;2024-03-08T02:38:29;2.33;;;2.10;;
16792;SDS011;8513;42.662;23.350;2024-03-08T02:40:54;2.40;;;2.20;;
16792;SDS011;8513;42.662;23.350;2024-03-08T02:43:20;2.50;;;2.07;;
16792;SDS011;8513;42.662;23.350;2024-03-08T02:45:47;3.00;;;2.07;;
16792;SDS011;8513;42.662;23.350;2024-03-08T02:48:14;2.60;;;2.40;;
16792;SDS011;8513;42.662;23.350;2024-03-08T02:50:40;2.20;;;2.00;;
16792;SDS011;8513;42.662;23.350;2024-03-08T02:53:07;2.10;;;2.00;;
16792;SDS011;8513;42.662;23.350;2024-03-08T02:55:33;2.20;;;2.00;;
16792;SDS011;8513;42.662;23.350;2024-03-08T02:58:01;2.87;;;2.10;;
16792;SDS011;8513;42.662;23.350;2024-03-08T03:00:28;1.83;;;1.73;;
16792;SDS011;8513;42.662;23.350;2024-03-08T03:02:55;1.70;;;1.60;;
16792;SDS011;8513;42.662;23.350;2024-03-08T03:05:21;2.17;;;1.77;;
16792;SDS011;8513;42.662;23.350;2024-03-08T03:07:48;1.40;;;1.30;;
16792;SDS011;8513;42.662;23.350;2024-03-08T03:10:14;1.57;;;1.47;;
16792;SDS011;8513;42.662;23.350;2024-03-08T03:12:44;2.07;;;1.40;;
16792;SDS011;8513;42.662;23.350;2024-03-08T03:15:13;1.93;;;1.00;;
16792;SDS011;8513;42.662;23.350;2024-03-08T03:17:42;1.30;;;1.20;;
16792;SDS011;8513;42.662;23.350;2024-03-08T03:20:11;1.10;;;0.80;;
16792;SDS011;8513;42.662;23.350;2024-03-08T03:22:40;1.10;;;1.00;;
16792;SDS011;8513;42.662;23.350;2024-03-08T03:25:06;1.10;;;1.00;;
16792;SDS011;8513;42.662;23.350;2024-03-08T03:27:33;1.30;;;1.03;;
16792;SDS011;8513;42.662;23.350;2024-03-08T03:29:58;1.77;;;1.30;;
16792;SDS011;8513;42.662;23.350;2024-03-08T03:32:44;0.90;;;0.90;;
16792;SDS011;8513;42.662;23.350;2024-03-08T03:35:12;1.07;;;1.00;;
16792;SDS011;8513;42.662;23.350;2024-03-08T03:37:38;1.40;;;1.20;;
16792;SDS011;8513;42.662;23.350;2024-03-08T03:40:05;0.97;;;0.97;;
16792;SDS011;8513;42.662;23.350;2024-03-08T03:42:31;1.10;;;1.00;;
16792;SDS011;8513;42.662;23.350;2024-03-08T03:44:56;1.20;;;1.10;;
16792;SDS011;8513;42.662;23.350;2024-03-08T03:47:22;1.60;;;1.47;;
16792;SDS011;8513;42.662;23.350;2024-03-08T03:49:47;1.30;;;1.20;;
16792;SDS011;8513;42.662;23.350;2024-03-08T03:52:12;1.30;;;1.10;;
16792;SDS011;8513;42.662;23.350;2024-03-08T03:54:38;1.20;;;1.07;;
16792;SDS011;8513;42.662;23.350;2024-03-08T03:57:03;1.07;;;1.00;;
16792;SDS011;8513;42.662;23.350;2024-03-08T03:59:29;1.10;;;1.03;;
16792;SDS011;8513;42.662;23.350;2024-03-08T04:01:55;1.20;;;1.10;;
16792;SDS011;8513;42.662;23.350;2024-03-08T04:04:21;0.93;;;0.93;;
16792;SDS011;8513;42.662;23.350;2024-03-08T04:06:47;1.17;;;1.07;;
16792;SDS011;8513;42.662;23.350;2024-03-08T04:09:12;1.33;;;1.23;;
16792;SDS011;8513;42.662;23.350;2024-03-08T04:11:38;1.40;;;1.30;;
16792;SDS011;8513;42.662;23.350;2024-03-08T04:14:04;1.80;;;1.00;;
16792;SDS011;8513;42.662;23.350;2024-03-08T04:16:30;1.20;;;1.10;;
16792;SDS011;8513;42.662;23.350;2024-03-08T04:18:56;2.60;;;1.37;;
16792;SDS011;8513;42.662;23.350;2024-03-08T04:21:22;1.73;;;1.30;;
16792;SDS011;8513;42.662;23.350;2024-03-08T04:23:48;1.90;;;1.37;;
16792;SDS011;8513;42.662;23.350;2024-03-08T04:26:13;1.30;;;1.20;;
16792;SDS011;8513;42.662;23.350;2024-03-08T04:28:38;1.50;;;1.40;;
16792;SDS011;8513;42.662;23.350;2024-03-08T04:31:05;1.30;;;1.20;;
16792;SDS011;8513;42.662;23.350;2024-03-08T04:33:31;1.30;;;1.20;;
16792;SDS011;8513;42.662;23.350;2024-03-08T04:35:57;1.13;;;1.03;;
16792;SDS011;8513;42.662;23.350;2024-03-08T04:38:23;1.63;;;1.40;;
16792;SDS011;8513;42.662;23.350;2024-03-08T04:40:50;1.60;;;1.50;;
16792;SDS011;8513;42.662;23.350;2024-03-08T04:43:16;1.90;;;1.50;;
16792;SDS011;8513;42.662;23.350;2024-03-08T04:45:43;1.50;;;1.40;;
16792;SDS011;8513;42.662;23.350;2024-03-08T04:48:09;2.23;;;1.60;;
16792;SDS011;8513;42.662;23.350;2024-03-08T04:50:34;2.20;;;1.67;;
16792;SDS011;8513;42.662;23.350;2024-03-08T04:53:00;1.40;;;1.30;;
16792;SDS011;8513;42.662;23.350;2024-03-08T04:55:25;1.50;;;1.40;;
16792;SDS011;8513;42.662;23.350;2024-03-08T04:57:51;1.50;;;1.40;;
16792;SDS011;8513;42.662;23.350;2024-03-08T05:00:16;3.23;;;1.67;;
16792;SDS011;8513;42.662;23.350;2024-03-08T05:02:41;1.50;;;1.40;;
16792;SDS011;8513;42.662;23.350;2024-03-08T05:05:07;1.73;;;1.50;;
16792;SDS011;8513;42.662;23.350;2024-03-08T05:07:40;1.60;;;1.50;;
16792;SDS011;8513;42.662;23.350;2024-03-08T05:10:06;1.90;;;1.70;;
16792;SDS011;8513;42.662;23.350;2024-03-08T05:12:32;1.60;;;1.50;;
16792;SDS011;8513;42.662;23.350;2024-03-08T05:14:58;2.00;;;1.80;;
16792;SDS011;8513;42.662;23.350;2024-03-08T05:17:23;2.47;;;1.77;;
16792;SDS011;8513;42.662;23.350;2024-03-08T05:19:49;5.00;;;2.10;;
16792;SDS011;8513;42.662;23.350;2024-03-08T05:22:15;1.80;;;1.70;;
16792;SDS011;8513;42.662;23.350;2024-03-08T05:24:41;1.90;;;1.70;;
16792;SDS011;8513;42.662;23.350;2024-03-08T05:27:06;2.10;;;1.90;;
16792;SDS011;8513;42.662;23.350;2024-03-08T05:29:31;2.30;;;2.03;;
16792;SDS011;8513;42.662;23.350;2024-03-08T05:31:58;2.90;;;2.07;;
16792;SDS011;8513;42.662;23.350;2024-03-08T05:34:24;3.60;;;2.40;;
16792;SDS011;8513;42.662;23.350;2024-03-08T05:36:51;2.83;;;2.40;;
16792;SDS011;8513;42.662;23.350;2024-03-08T05:39:17;2.70;;;2.47;;
16792;SDS011;8513;42.662;23.350;2024-03-08T05:41:43;3.57;;;2.30;;
16792;SDS011;8513;42.662;23.350;2024-03-08T05:44:10;2.70;;;2.50;;
16792;SDS011;8513;42.662;23.350;2024-03-08T05:46:36;3.00;;;2.70;;
16792;SDS011;8513;42.662;23.350;2024-03-08T05:49:05;3.50;;;2.60;;
16792;SDS011;8513;42.662;23.350;2024-03-08T05:51:34;2.87;;;2.67;;
16792;SDS011;8513;42.662;23.350;2024-03-08T05:54:02;4.50;;;3.37;;
16792;SDS011;8513;42.662;23.350;2024-03-08T05:56:29;3.77;;;3.30;;
16792;SDS011;8513;42.662;23.350;2024-03-08T05:58:55;4.17;;;3.77;;
16792;SDS011;8513;42.662;23.350;2024-03-08T06:01:21;7.40;;;3.93;;
16792;SDS011;8513;42.662;23.350;2024-03-08T06:03:47;6.23;;;4.20;;
16792;SDS011;8513;42.662;23.350;2024-03-08T06:06:14;4.43;;;4.03;;
16792;SDS011;8513;42.662;23.350;2024-03-08T06:08:40;6.97;;;5.70;;
16792;SDS011;8513;42.662;23.350;2024-03-08T06:11:08;10.80;;;5.87;;
16792;SDS011;8513;42.662;23.350;2024-03-08T06:13:33;6.93;;;5.70;;
16792;SDS011;8513;42.662;23.350;2024-03-08T06:15:59;6.57;;;5.63;;
16792;SDS011;8513;42.662;23.350;2024-03-08T06:18:25;8.17;;;6.30;;
16792;SDS011;8513;42.662;23.350;2024-03-08T06:20:51;6.13;;;5.40;;
16792;SDS011;8513;42.662;23.350;2024-03-08T06:23:17;9.50;;;5.80;;
16792;SDS011;8513;42.662;23.350;2024-03-08T06:25:43;10.20;;;6.50;;
16792;SDS011;8513;42.662;23.350;2024-03-08T06:28:09;10.30;;;7.60;;
16792;SDS011;8513;42.662;23.350;2024-03-08T06:30:35;10.33;;;8.43;;
16792;SDS011;8513;42.662;23.350;2024-03-08T06:33:00;7.60;;;6.33;;
16792;SDS011;8513;42.662;23.350;2024-03-08T06:35:26;8.83;;;7.10;;
16792;SDS011;8513;42.662;23.350;2024-03-08T06:37:51;6.97;;;6.10;;
16792;SDS011;8513;42.662;23.350;2024-03-08T06:40:16;7.93;;;6.10;;
16792;SDS011;8513;42.662;23.350;2024-03-08T06:42:42;7.00;;;6.30;;
16792;SDS011;8513;42.662;23.350;2024-03-08T06:45:08;8.10;;;5.53;;
16792;SDS011;8513;42.662;23.350;2024-03-08T06:47:35;6.30;;;5.43;;
16792;SDS011;8513;42.662;23.350;2024-03-08T06:50:01;6.13;;;5.47;;
16792;SDS011;8513;42.662;23.350;2024-03-08T06:52:27;6.77;;;5.70;;
16792;SDS011;8513;42.662;23.350;2024-03-08T06:54:52;6.43;;;5.73;;
16792;SDS011;8513;42.662;23.350;2024-03-08T06:57:18;9.20;;;5.73;;
16792;SDS011;8513;42.662;23.350;2024-03-08T06:59:46;6.20;;;5.60;;
16792;SDS011;8513;42.662;23.350;2024-03-08T07:02:12;5.23;;;4.73;;
16792;SDS011;8513;42.662;23.350;2024-03-08T07:04:38;8.13;;;5.10;;
16792;SDS011;8513;42.662;23.350;2024-03-08T07:07:04;5.43;;;3.90;;
16792;SDS011;8513;42.662;23.350;2024-03-08T07:09:30;4.40;;;3.90;;
16792;SDS011;8513;42.662;23.350;2024-03-08T07:11:55;4.10;;;3.50;;
16792;SDS011;8513;42.662;23.350;2024-03-08T07:14:21;4.47;;;4.07;;
16792;SDS011;8513;42.662;23.350;2024-03-08T07:16:47;4.20;;;3.80;;
16792;SDS011;8513;42.662;23.350;2024-03-08T07:19:13;5.03;;;3.83;;
16792;SDS011;8513;42.662;23.350;2024-03-08T07:21:39;5.13;;;3.97;;
16792;SDS011;8513;42.662;23.350;2024-03-08T07:24:04;4.50;;;4.10;;
16792;SDS011;8513;42.662;23.350;2024-03-08T07:26:42;4.03;;;3.63;;
16792;SDS011;8513;42.662;23.350;2024-03-08T07:29:08;4.73;;;4.17;;
16792;SDS011;8513;42.662;23.350;2024-03-08T07:31:34;4.47;;;3.37;;
16792;SDS011;8513;42.662;23.350;2024-03-08T07:34:02;4.10;;;3.70;;
16792;SDS011;8513;42.662;23.350;2024-03-08T07:36:28;4.53;;;3.67;;
16792;SDS011;8513;42.662;23.350;2024-03-08T07:38:54;5.43;;;3.77;;
16792;SDS011;8513;42.662;23.350;2024-03-08T07:41:19;4.63;;;4.23;;
16792;SDS011;8513;42.662;23.350;2024-03-08T07:43:45;6.23;;;3.73;;
16792;SDS011;8513;42.662;23.350;2024-03-08T07:46:10;5.97;;;5.37;;
16792;SDS011;8513;42.662;23.350;2024-03-08T07:48:36;5.20;;;4.70;;
16792;SDS011;8513;42.662;23.350;2024-03-08T07:51:05;6.00;;;5.30;;
16792;SDS011;8513;42.662;23.350;2024-03-08T07:53:30;5.43;;;4.87;;
16792;SDS011;8513;42.662;23.350;2024-03-08T07:55:56;5.37;;;4.07;;
16792;SDS011;8513;42.662;23.350;2024-03-08T07:58:21;5.50;;;4.47;;
16792;SDS011;8513;42.662;23.350;2024-03-08T08:00:47;5.07;;;4.57;;
16792;SDS011;8513;42.662;23.350;2024-03-08T08:03:12;5.60;;;4.00;;
16792;SDS011;8513;42.662;23.350;2024-03-08T08:05:38;5.63;;;4.67;;
16792;SDS011;8513;42.662;23.350;2024-03-08T08:08:04;5.40;;;4.17;;
16792;SDS011;8513;42.662;23.350;2024-03-08T08:10:34;5.80;;;4.63;;
16792;SDS011;8513;42.662;23.350;2024-03-08T08:12:59;5.80;;;4.73;;
16792;SDS011;8513;42.662;23.350;2024-03-08T08:15:25;4.80;;;3.77;;
16792;SDS011;8513;42.662;23.350;2024-03-08T08:17:50;4.33;;;3.93;;
16792;SDS011;8513;42.662;23.350;2024-03-08T08:20:17;4.00;;;3.60;;
16792;SDS011;8513;42.662;23.350;2024-03-08T08:22:43;4.50;;;3.77;;
16792;SDS011;8513;42.662;23.350;2024-03-08T08:25:09;6.80;;;5.20;;
16792;SDS011;8513;42.662;23.350;2024-03-08T08:27:38;4.83;;;4.33;;
16792;SDS011;8513;42.662;23.350;2024-03-08T08:30:05;4.73;;;4.13;;
16792;SDS011;8513;42.662;23.350;2024-03-08T08:32:33;4.47;;;4.07;;
16792;SDS011;8513;42.662;23.350;2024-03-08T08:35:02;6.93;;;5.47;;
16792;SDS011;8513;42.662;23.350;2024-03-08T08:37:30;7.47;;;4.73;;
16792;SDS011;8513;42.662;23.350;2024-03-08T08:39:56;9.03;;;4.00;;
16792;SDS011;8513;42.662;23.350;2024-03-08T08:42:22;4.43;;;3.87;;
16792;SDS011;8513;42.662;23.350;2024-03-08T08:44:48;5.83;;;5.20;;
16792;SDS011;8513;42.662;23.350;2024-03-08T08:47:15;3.90;;;3.50;;
16792;SDS011;8513;42.662;23.350;2024-03-08T08:49:43;5.30;;;4.80;;
16792;SDS011;8513;42.662;23.350;2024-03-08T08:52:11;8.07;;;5.00;;
16792;SDS011;8513;42.662;23.350;2024-03-08T08:54:36;3.80;;;3.47;;
16792;SDS011;8513;42.662;23.350;2024-03-08T08:57:02;6.03;;;3.17;;
16792;SDS011;8513;42.662;23.350;2024-03-08T08:59:32;3.80;;;3.03;;
16792;SDS011;8513;42.662;23.350;2024-03-08T09:01:58;6.80;;;3.63;;
16792;SDS011;8513;42.662;23.350;2024-03-08T09:04:23;3.67;;;3.37;;
16792;SDS011;8513;42.662;23.350;2024-03-08T09:06:49;3.63;;;3.33;;
16792;SDS011;8513;42.662;23.350;2024-03-08T09:09:14;5.47;;;3.73;;
16792;SDS011;8513;42.662;23.350;2024-03-08T09:11:42;4.93;;;4.43;;
16792;SDS011;8513;42.662;23.350;2024-03-08T09:14:07;4.50;;;4.10;;
16792;SDS011;8513;42.662;23.350;2024-03-08T09:16:37;4.97;;;4.03;;
16792;SDS011;8513;42.662;23.350;2024-03-08T09:19:02;4.17;;;3.77;;
16792;SDS011;8513;42.662;23.350;2024-03-08T09:21:27;3.70;;;3.30;;
16792;SDS011;8513;42.662;23.350;2024-03-08T09:23:53;4.57;;;3.33;;
16792;SDS011;8513;42.662;23.350;2024-03-08T09:26:18;3.73;;;3.20;;
16792;SDS011;8513;42.662;23.350;2024-03-08T09:28:44;3.43;;;3.13;;
16792;SDS011;8513;42.662;23.350;2024-03-08T09:31:10;2.93;;;2.67;;
16792;SDS011;8513;42.662;23.350;2024-03-08T09:33:36;2.90;;;2.70;;
16792;SDS011;8513;42.662;23.350;2024-03-08T09:36:02;5.27;;;2.73;;
16792;SDS011;8513;42.662;23.350;2024-03-08T09:38:29;4.93;;;2.80;;
16792;SDS011;8513;42.662;23.350;2024-03-08T09:40:54;4.53;;;2.67;;
16792;SDS011;8513;42.662;23.350;2024-03-08T09:43:21;2.93;;;2.60;;
16792;SDS011;8513;42.662;23.350;2024-03-08T09:45:49;3.30;;;2.70;;
16792;SDS011;8513;42.662;23.350;2024-03-08T09:48:16;3.23;;;2.90;;
16792;SDS011;8513;42.662;23.350;2024-03-08T09:50:44;3.67;;;2.63;;
16792;SDS011;8513;42.662;23.350;2024-03-08T09:53:11;3.77;;;2.60;;
16792;SDS011;8513;42.662;23.350;2024-03-08T09:55:37;2.50;;;2.30;;
16792;SDS011;8513;42.662;23.350;2024-03-08T09:58:06;2.63;;;2.40;;
16792;SDS011;8513;42.662;23.350;2024-03-08T10:00:52;3.10;;;2.07;;
16792;SDS011;8513;42.662;23.350;2024-03-08T10:03:18;2.20;;;1.90;;
16792;SDS011;8513;42.662;23.350;2024-03-08T10:05:44;3.40;;;2.10;;
16792;SDS011;8513;42.662;23.350;2024-03-08T10:08:10;2.00;;;1.80;;
16792;SDS011;8513;42.662;23.350;2024-03-08T10:10:36;2.17;;;1.97;;
16792;SDS011;8513;42.662;23.350;2024-03-08T10:13:04;2.20;;;2.00;;
16792;SDS011;8513;42.662;23.350;2024-03-08T10:15:31;3.50;;;2.00;;
16792;SDS011;8513;42.662;23.350;2024-03-08T10:17:58;2.17;;;1.83;;
16792;SDS011;8513;42.662;23.350;2024-03-08T10:20:24;2.53;;;1.73;;
16792;SDS011;8513;42.662;23.350;2024-03-08T10:22:51;2.13;;;1.93;;
16792;SDS011;8513;42.662;23.350;2024-03-08T10:25:18;2.20;;;2.00;;
16792;SDS011;8513;42.662;23.350;2024-03-08T10:27:44;2.20;;;1.80;;
16792;SDS011;8513;42.662;23.350;2024-03-08T10:30:16;2.20;;;2.00;;
16792;SDS011;8513;42.662;23.350;2024-03-08T10:32:46;2.67;;;1.90;;
16792;SDS011;8513;42.662;23.350;2024-03-08T10:35:12;7.53;;;2.90;;
16792;SDS011;8513;42.662;23.350;2024-03-08T10:37:47;2.67;;;2.20;;
16792;SDS011;8513;42.662;23.350;2024-03-08T10:40:18;2.30;;;2.00;;
16792;SDS011;8513;42.662;23.350;2024-03-08T10:43:05;2.40;;;1.80;;
16792;SDS011;8513;42.662;23.350;2024-03-08T10:50:47;2.80;;;2.17;;
16792;SDS011;8513;42.662;23.350;2024-03-08T10:53:15;3.17;;;1.83;;
16792;SDS011;8513;42.662;23.350;2024-03-08T10:55:43;1.93;;;1.70;;
16792;SDS011;8513;42.662;23.350;2024-03-08T10:58:09;2.30;;;1.90;;
16792;SDS011;8513;42.662;23.350;2024-03-08T11:00:37;2.10;;;1.90;;
16792;SDS011;8513;42.662;23.350;2024-03-08T11:03:03;2.27;;;1.40;;
16792;SDS011;8513;42.662;23.350;2024-03-08T11:08:15;1.90;;;1.63;;
16792;SDS011;8513;42.662;23.350;2024-03-08T11:18:54;2.90;;;1.73;;
16792;SDS011;8513;42.662;23.350;2024-03-08T11:21:21;2.23;;;1.50;;
16792;SDS011;8513;42.662;23.350;2024-03-08T11:24:00;2.50;;;1.57;;
16792;SDS011;8513;42.662;23.350;2024-03-08T11:26:26;2.70;;;2.50;;
16792;SDS011;8513;42.662;23.350;2024-03-08T11:29:12;3.37;;;1.80;;
16792;SDS011;8513;42.662;23.350;2024-03-08T11:32:12;2.00;;;1.75;;
16792;SDS011;8513;42.662;23.350;2024-03-08T11:34:49;2.08;;;1.75;;
16792;SDS011;8513;42.662;23.350;2024-03-08T11:37:16;2.00;;;1.50;;
16792;SDS011;8513;42.662;23.350;2024-03-08T11:39:46;3.22;;;1.80;;
16792;SDS011;8513;42.662;23.350;2024-03-08T11:42:13;3.65;;;2.00;;
16792;SDS011;8513;42.662;23.350;2024-03-08T11:44:39;1.63;;;1.40;;
16792;SDS011;8513;42.662;23.350;2024-03-08T11:47:09;3.42;;;1.40;;
16792;SDS011;8513;42.662;23.350;2024-03-08T11:49:36;1.73;;;1.60;;
16792;SDS011;8513;42.662;23.350;2024-03-08T11:52:01;1.90;;;1.80;;
16792;SDS011;8513;42.662;23.350;2024-03-08T11:54:28;3.63;;;1.77;;
16792;SDS011;8513;42.662;23.350;2024-03-08T11:56:55;1.48;;;1.38;;
16792;SDS011;8513;42.662;23.350;2024-03-08T11:59:25;1.65;;;1.55;;
16792;SDS011;8513;42.662;23.350;2024-03-08T12:02:02;4.18;;;1.80;;
16792;SDS011;8513;42.662;23.350;2024-03-08T12:04:29;2.63;;;2.20;;
16792;SDS011;8513;42.662;23.350;2024-03-08T12:06:56;2.65;;;1.77;;
16792;SDS011;8513;42.662;23.350;2024-03-08T12:09:24;2.15;;;1.30;;
16792;SDS011;8513;42.662;23.350;2024-03-08T12:11:50;2.47;;;1.60;;
16792;SDS011;8513;42.662;23.350;2024-03-08T12:14:16;1.60;;;1.50;;
16792;SDS011;8513;42.662;23.350;2024-03-08T12:16:42;1.10;;;1.10;;
16792;SDS011;8513;42.662;23.350;2024-03-08T12:19:08;1.50;;;1.40;;
16792;SDS011;8513;42.662;23.350;2024-03-08T12:21:35;1.35;;;1.23;;
16792;SDS011;8513;42.662;23.350;2024-03-08T12:24:10;2.80;;;1.52;;
16792;SDS011;8513;42.662;23.350;2024-03-08T12:26:36;2.58;;;1.50;;
16792;SDS011;8513;42.662;23.350;2024-03-08T12:29:16;3.78;;;1.45;;
16792;SDS011;8513;42.662;23.350;2024-03-08T12:31:52;2.15;;;1.27;;
16792;SDS011;8513;42.662;23.350;2024-03-08T12:34:19;1.30;;;1.20;;
16792;SDS011;8513;42.662;23.350;2024-03-08T12:36:48;2.28;;;1.70;;
16792;SDS011;8513;42.662;23.350;2024-03-08T12:39:17;2.05;;;1.40;;
16792;SDS011;8513;42.662;23.350;2024-03-08T12:41:47;2.08;;;1.40;;
16792;SDS011;8513;42.662;23.350;2024-03-08T12:44:19;1.75;;;1.20;;
16792;SDS011;8513;42.662;23.350;2024-03-08T12:46:50;1.83;;;0.98;;
16792;SDS011;8513;42.662;23.350;2024-03-08T12:49:16;1.50;;;1.40;;
16792;SDS011;8513;42.662;23.350;2024-03-08T12:51:45;1.85;;;1.75;;
16792;SDS011;8513;42.662;23.350;2024-03-08T12:54:11;1.50;;;1.38;;
16792;SDS011;8513;42.662;23.350;2024-03-08T12:56:37;2.25;;;1.60;;
16792;SDS011;8513;42.662;23.350;2024-03-08T12:59:03;1.38;;;1.27;;
16792;SDS011;8513;42.662;23.350;2024-03-08T13:01:30;3.50;;;1.75;;
16792;SDS011;8513;42.662;23.350;2024-03-08T13:04:02;1.50;;;1.40;;
16792;SDS011;8513;42.662;23.350;2024-03-08T13:06:28;2.05;;;1.75;;
16792;SDS011;8513;42.662;23.350;2024-03-08T13:08:56;5.10;;;1.88;;
16792;SDS011;8513;42.662;23.350;2024-03-08T13:11:23;2.00;;;1.90;;
16792;SDS011;8513;42.662;23.350;2024-03-08T13:13:49;3.63;;;3.05;;
16792;SDS011;8513;42.662;23.350;2024-03-08T13:16:14;1.98;;;1.88;;
16792;SDS011;8513;42.662;23.350;2024-03-08T13:18:40;2.08;;;1.98;;
16792;SDS011;8513;42.662;23.350;2024-03-08T13:21:12;2.35;;;1.88;;
16792;SDS011;8513;42.662;23.350;2024-03-08T13:23:40;1.88;;;1.77;;
16792;SDS011;8513;42.662;23.350;2024-03-08T13:26:10;1.83;;;1.73;;
16792;SDS011;8513;42.662;23.350;2024-03-08T13:28:40;2.17;;;2.08;;
16792;SDS011;8513;42.662;23.350;2024-03-08T13:31:10;1.80;;;1.70;;
16792;SDS011;8513;42.662;23.350;2024-03-08T13:33:36;4.00;;;2.05;;
16792;SDS011;8513;42.662;23.350;2024-03-08T13:36:03;1.58;;;1.48;;
16792;SDS011;8513;42.662;23.350;2024-03-08T13:38:31;1.40;;;1.30;;
16792;SDS011;8513;42.662;23.350;2024-03-08T13:40:58;3.70;;;1.85;;
16792;SDS011;8513;42.662;23.350;2024-03-08T13:43:24;6.18;;;2.80;;
16792;SDS011;8513;42.662;23.350;2024-03-08T13:45:49;2.17;;;1.98;;
16792;SDS011;8513;42.662;23.350;2024-03-08T13:48:15;5.03;;;1.73;;
16792;SDS011;8513;42.662;23.350;2024-03-08T13:50:41;2.33;;;1.60;;
16792;SDS011;8513;42.662;23.350;2024-03-08T13:53:06;1.95;;;1.70;;
16792;SDS011;8513;42.662;23.350;2024-03-08T13:55:32;1.17;;;1.08;;
16792;SDS011;8513;42.662;23.350;2024-03-08T13:57:58;1.40;;;1.30;;
16792;SDS011;8513;42.662;23.350;2024-03-08T14:00:24;1.60;;;1.40;;
16792;SDS011;8513;42.662;23.350;2024-03-08T14:02:52;1.40;;;1.30;;
16792;SDS011;8513;42.662;23.350;2024-03-08T14:05:19;2.45;;;1.40;;
16792;SDS011;8513;42.662;23.350;2024-03-08T14:07:44;2.35;;;1.40;;
16792;SDS011;8513;42.662;23.350;2024-03-08T14:10:12;2.22;;;1.40;;
16792;SDS011;8513;42.662;23.350;2024-03-08T14:12:37;3.20;;;2.90;;
16792;SDS011;8513;42.662;23.350;2024-03-08T14:15:03;2.17;;;1.63;;
16792;SDS011;8513;42.662;23.350;2024-03-08T14:17:32;1.95;;;1.63;;
16792;SDS011;8513;42.662;23.350;2024-03-08T14:19:58;3.50;;;2.25;;
16792;SDS011;8513;42.662;23.350;2024-03-08T14:22:24;3.33;;;2.25;;
16792;SDS011;8513;42.662;23.350;2024-03-08T14:24:49;2.45;;;1.55;;
16792;SDS011;8513;42.662;23.350;2024-03-08T14:27:16;1.75;;;1.65;;
16792;SDS011;8513;42.662;23.350;2024-03-08T14:29:43;4.60;;;2.10;;
16792;SDS011;8513;42.662;23.350;2024-03-08T14:32:09;3.70;;;2.40;;
16792;SDS011;8513;42.662;23.350;2024-03-08T14:34:35;1.50;;;1.40;;
16792;SDS011;8513;42.662;23.350;2024-03-08T14:37:01;2.55;;;1.80;;
16792;SDS011;8513;42.662;23.350;2024-03-08T14:39:30;2.28;;;1.75;;
16792;SDS011;8513;42.662;23.350;2024-03-08T14:41:58;2.97;;;2.60;;
16792;SDS011;8513;42.662;23.350;2024-03-08T14:44:25;3.97;;;2.17;;
16792;SDS011;8513;42.662;23.350;2024-03-08T14:46:51;2.70;;;2.00;;
16792;SDS011;8513;42.662;23.350;2024-03-08T14:49:17;2.00;;;1.77;;
16792;SDS011;8513;42.662;23.350;2024-03-08T14:51:44;2.33;;;2.08;;
16792;SDS011;8513;42.662;23.350;2024-03-08T14:54:10;1.80;;;1.70;;
16792;SDS011;8513;42.662;23.350;2024-03-08T14:56:35;3.42;;;1.67;;
16792;SDS011;8513;42.662;23.350;2024-03-08T14:59:02;4.05;;;2.70;;
16792;SDS011;8513;42.662;23.350;2024-03-08T15:01:29;5.72;;;2.78;;